Time;durP1;ratioP1;P1;durP2;ratioP2;P2;SDS_P1;SDS_P2;PMS_P1;PMS_P2;Temp;Humidity;BMP_temperature;BMP_pressure;BME280_temperature;BME280_humidity;BME280_pressure;Samples;Min_cycle;Max_cycle;Signal;HPM_P1;HPM_P2
2020/12/04 00:02:04;;;;;;;3.92;3.30;;;;;;;7.87;71.45;98185.13;5032605;28;20068;-85
2020/12/04 00:04:29;;;;;;;7.10;3.72;;;;;;;7.62;72.48;98181.69;5032640;28;20049;-85
2020/12/04 00:06:57;;;;;;;4.70;4.20;;;;;;;8.15;70.12;98175.69;5033980;28;20485;-85
2020/12/04 00:09:23;;;;;;;4.25;3.58;;;;;;;8.04;70.66;98167.63;5032808;28;20478;-85
2020/12/04 00:11:48;;;;;;;4.50;3.50;;;;;;;7.85;71.25;98160.19;5032562;28;20026;-85
2020/12/04 00:14:13;;;;;;;4.50;3.33;;;;;;;7.75;71.17;98154.66;5033432;28;20029;-84
2020/12/04 00:16:39;;;;;;;4.22;3.45;;;;;;;7.76;70.97;98159.06;5049289;28;20853;-84
2020/12/04 00:19:04;;;;;;;5.07;3.80;;;;;;;7.60;71.50;98140.56;5033545;28;20656;-85
2020/12/04 00:21:29;;;;;;;3.90;3.60;;;;;;;8.54;68.52;98139.41;5033666;28;20350;-86
2020/12/04 00:23:54;;;;;;;4.23;3.83;;;;;;;7.77;70.88;98141.91;5032343;28;20276;-85
2020/12/04 00:26:20;;;;;;;4.20;3.80;;;;;;;8.06;70.31;98130.69;5032376;28;20763;-85
2020/12/04 00:28:46;;;;;;;4.40;3.28;;;;;;;7.81;71.29;98135.31;5032706;28;20376;-84
2020/12/04 00:31:11;;;;;;;;;;;;;;;7.87;70.75;98133.13;5033581;28;20029;-85
2020/12/04 00:33:37;;;;;;;3.58;3.28;;;;;;;7.87;70.77;98119.69;5044172;28;19920;-84
2020/12/04 00:36:02;;;;;;;;;;;;;;;7.91;69.72;98124.69;5053830;28;20572;-85
2020/12/04 00:38:28;;;;;;;3.35;3.05;;;;;;;7.53;71.65;98119.66;5032601;28;19960;-85
2020/12/04 00:40:53;;;;;;;4.15;3.75;;;;;;;8.47;69.01;98104.91;5033262;28;20033;-85
2020/12/04 00:43:18;;;;;;;5.55;4.32;;;;;;;8.22;69.02;98097.09;5032201;28;20057;-86
2020/12/04 00:45:45;;;;;;;4.20;3.40;;;;;;;7.92;69.92;98087.84;5033096;28;20559;-86
2020/12/04 00:48:11;;;;;;;3.58;3.10;;;;;;;8.21;69.83;98079.22;5032254;28;20033;-86
2020/12/04 00:50:36;;;;;;;3.22;3.03;;;;;;;7.50;71.50;98074.16;5032164;28;20055;-85
2020/12/04 00:53:01;;;;;;;3.33;3.05;;;;;;;7.84;70.76;98076.88;5033040;28;20029;-84
2020/12/04 00:55:27;;;;;;;3.83;3.53;;;;;;;7.87;70.01;98076.63;5032225;28;20116;-85
2020/12/04 00:57:52;;;;;;;3.85;3.55;;;;;;;7.99;70.58;98059.47;5032923;28;20032;-85
2020/12/04 01:00:17;;;;;;;3.45;3.15;;;;;;;8.33;69.03;98062.91;5031764;28;20032;-85
2020/12/04 01:02:43;;;;;;;3.75;3.10;;;;;;;7.57;71.40;98080.78;5048445;28;20536;-84
2020/12/04 01:05:08;;;;;;;5.80;3.00;;;;;;;7.76;70.03;98061.31;5033186;28;20120;-85
2020/12/04 01:07:33;;;;;;;3.03;2.78;;;;;;;8.20;69.10;98047.88;5031738;28;20068;-84
2020/12/04 01:09:59;;;;;;;3.25;3.00;;;;;;;7.94;69.61;98041.00;5033107;28;20092;-85
2020/12/04 01:12:24;;;;;;;2.92;2.72;;;;;;;7.17;72.16;98059.72;5031404;28;20029;-85
2020/12/04 01:14:49;;;;;;;;;;;;;;;8.00;70.35;98034.22;5032209;28;20041;-85
2020/12/04 01:17:15;;;;;;;3.08;2.85;;;;;;;7.96;70.10;98040.88;5032848;28;19913;-84
2020/12/04 01:19:41;;;;;;;3.40;3.10;;;;;;;7.80;69.93;98023.28;5048359;28;20037;-85
2020/12/04 01:22:06;;;;;;;;;;;;;;;7.85;70.57;98019.34;5032333;28;20158;-85
2020/12/04 01:24:31;;;;;;;3.55;3.20;;;;;;;8.15;69.23;98016.81;5032125;28;19913;-86
2020/12/04 01:26:57;;;;;;;3.17;2.85;;;;;;;8.13;69.42;98004.47;5034251;28;20466;-85
2020/12/04 01:29:22;;;;;;;3.83;3.42;;;;;;;7.90;70.79;98022.53;5035579;28;20116;-84
2020/12/04 01:31:47;;;;;;;3.45;3.25;;;;;;;8.37;69.36;98006.94;5035994;28;20025;-85
2020/12/04 01:34:14;;;;;;;3.28;3.03;;;;;;;7.90;69.77;98001.84;5037055;28;20463;-85
2020/12/04 01:36:39;;;;;;;3.78;3.47;;;;;;;8.14;69.31;97998.94;5036579;28;20049;-85
2020/12/04 01:39:04;;;;;;;6.38;3.80;;;;;;;8.28;68.81;97991.56;5035501;28;20116;-85
2020/12/04 01:41:34;;;;;;;3.47;3.20;;;;;;;8.96;66.27;97988.50;5035410;28;20035;-85
2020/12/04 01:44:00;;;;;;;4.15;3.08;;;;;;;8.05;69.79;97986.25;5035187;28;20437;-85
2020/12/04 01:46:26;;;;;;;3.95;3.60;;;;;;;8.30;68.52;97984.19;5035325;28;20028;-84
2020/12/04 01:48:51;;;;;;;3.13;2.92;;;;;;;7.98;76.15;97972.44;5036782;28;20463;-85
2020/12/04 01:51:17;;;;;;;2.50;2.30;;;;;;;7.79;69.96;97978.50;5035593;28;20036;-84
2020/12/04 01:53:44;;;;;;;3.35;3.05;;;;;;;8.44;68.14;97966.88;5035288;28;20108;-86
2020/12/04 01:56:10;;;;;;;3.08;2.67;;;;;;;7.96;69.96;97977.09;5036975;28;20018;-85
2020/12/04 01:58:35;;;;;;;;;;;;;;;7.88;69.92;97973.31;5035901;28;20022;-84
2020/12/04 02:01:01;;;;;;;2.83;2.50;;;;;;;7.56;72.13;97964.25;5052018;28;19920;-86
2020/12/04 02:03:27;;;;;;;3.50;3.22;;;;;;;8.10;70.03;97954.41;5035328;28;20036;-85
2020/12/04 02:06:05;;;;;;;2.95;2.75;;;;;;;7.98;70.27;97953.59;5035227;28;20099;-85
2020/12/04 02:08:43;;;;;;;3.15;2.60;;;;;;;7.62;70.56;97946.72;5035338;28;20021;-85
2020/12/04 02:11:21;;;;;;;2.90;2.70;;;;;;;7.82;70.18;97939.72;5035486;28;20030;-86
2020/12/04 02:13:48;;;;;;;2.75;2.55;;;;;;;7.94;69.83;97945.91;5035315;28;20375;-85
2020/12/04 02:16:18;;;;;;;3.75;2.92;;;;;;;7.52;70.91;97960.09;5034697;28;20071;-84
2020/12/04 02:18:43;;;;;;;3.40;2.80;;;;;;;7.73;70.51;97924.31;5035165;28;20026;-85
2020/12/04 02:21:09;;;;;;;2.75;2.55;;;;;;;8.03;69.23;97920.06;5035272;28;20044;-86
2020/12/04 02:23:35;;;;;;;;;;;;;;;8.41;68.29;97903.34;5036008;28;20033;-85
2020/12/04 02:26:01;;;;;;;3.28;2.78;;;;;;;7.94;69.77;97889.38;5052718;28;19920;-85
2020/12/04 02:28:32;;;;;;;3.65;3.35;;;;;;;8.20;68.74;97897.06;5063688;28;20080;-82
2020/12/04 02:30:57;;;;;;;3.50;2.88;;;;;;;8.16;68.62;97891.94;5036809;28;20163;-85
2020/12/04 02:33:23;;;;;;;3.05;2.75;;;;;;;8.74;67.13;97889.78;5036085;28;20049;-84
2020/12/04 02:35:48;;;;;;;4.43;2.83;;;;;;;8.18;68.34;97882.91;5035515;28;20395;-85
2020/12/04 02:38:13;;;;;;;2.60;2.40;;;;;;;8.38;68.63;97889.25;5049806;28;20040;-85
2020/12/04 02:40:39;;;;;;;3.55;2.60;;;;;;;7.75;70.39;97882.84;5034082;28;20018;-85
2020/12/04 02:43:04;;;;;;;2.97;2.78;;;;;;;8.54;68.39;97867.28;5034380;28;20057;-84
2020/12/04 02:45:29;;;;;;;3.23;2.93;;;;;;;8.08;68.85;97866.69;5035205;28;20467;-85
2020/12/04 02:47:55;;;;;;;2.78;2.25;;;;;;;8.25;68.63;97851.78;5033893;28;20278;-83
2020/12/04 02:50:20;;;;;;;2.17;1.97;;;;;;;7.91;69.03;97842.06;5035424;28;20356;-84
2020/12/04 02:52:45;;;;;;;2.20;2.00;;;;;;;8.31;68.48;97843.16;5035014;28;20741;-84
2020/12/04 02:55:10;;;;;;;2.93;1.97;;;;;;;7.96;68.72;97839.81;5035066;28;20287;-84
2020/12/04 02:57:36;;;;;;;2.27;2.07;;;;;;;8.44;67.14;97838.44;5033826;28;20296;-84
2020/12/04 03:00:03;;;;;;;2.00;1.90;;;;;;;7.65;69.12;97836.16;5035295;28;20276;-84
2020/12/04 03:02:28;;;;;;;2.40;2.20;;;;;;;7.88;69.36;97833.38;5034640;28;20811;-84
2020/12/04 03:04:53;;;;;;;2.17;1.97;;;;;;;8.14;68.10;97828.47;5033407;28;20076;-85
2020/12/04 03:07:18;;;;;;;2.10;1.80;;;;;;;7.91;67.85;97825.03;5033869;28;20288;-85
2020/12/04 03:09:44;;;;;;;1.87;1.77;;;;;;;8.31;67.26;97808.97;5033338;28;20284;-84
2020/12/04 03:12:09;;;;;;;1.83;1.73;;;;;;;7.98;68.09;97818.16;5033439;28;20292;-84
2020/12/04 03:14:34;;;;;;;1.48;1.38;;;;;;;8.03;67.61;97815.94;5033546;28;20375;-85
2020/12/04 03:17:00;;;;;;;1.40;1.30;;;;;;;7.85;68.49;97812.09;5050211;28;20029;-84
2020/12/04 03:19:25;;;;;;;1.60;1.50;;;;;;;8.29;67.76;97805.59;5035450;28;20151;-84
2020/12/04 03:21:50;;;;;;;1.73;1.63;;;;;;;8.30;67.94;97804.59;5050453;28;20057;-84
2020/12/04 03:24:16;;;;;;;1.63;1.53;;;;;;;7.94;68.82;97804.09;5033163;28;20026;-83
2020/12/04 03:26:41;;;;;;;1.50;1.40;;;;;;;8.59;67.62;97811.13;5034478;28;20276;-84
2020/12/04 03:29:06;;;;;;;2.95;1.90;;;;;;;8.74;67.26;97801.72;5033398;28;20919;-85
2020/12/04 03:31:32;;;;;;;2.87;1.83;;;;;;;8.10;69.74;97802.78;5033741;28;20030;-84
2020/12/04 03:33:57;;;;;;;1.53;1.43;;;;;;;7.91;69.10;97803.50;5049914;28;20375;-84
2020/12/04 03:36:22;;;;;;;1.67;1.57;;;;;;;8.38;68.00;97790.47;5034808;28;20330;-85
2020/12/04 03:38:48;;;;;;;1.80;1.70;;;;;;;8.33;67.74;97792.69;5033640;28;20769;-85
2020/12/04 03:41:13;;;;;;;2.13;1.95;;;;;;;8.49;67.93;97776.91;5033479;28;20074;-85
2020/12/04 03:43:40;;;;;;;1.95;1.60;;;;;;;7.88;70.15;97782.22;5033798;28;20028;-85
2020/12/04 03:46:15;;;;;;;1.50;1.40;;;;;;;8.18;69.25;97788.66;5034561;28;20022;-85
2020/12/04 03:48:41;;;;;;;1.70;1.48;;;;;;;8.08;68.64;97781.38;5033067;28;20171;-85
2020/12/04 03:51:07;;;;;;;1.90;1.80;;;;;;;9.27;65.74;97765.47;5033271;28;20036;-85
2020/12/04 03:53:33;;;;;;;1.80;1.70;;;;;;;8.42;68.76;97775.72;5033529;28;20021;-85
2020/12/04 03:55:58;;;;;;;1.95;1.85;;;;;;;8.95;67.31;97771.09;5033449;28;20052;-85
2020/12/04 03:58:24;;;;;;;1.17;1.15;;;;;;;8.42;67.66;97758.72;5033081;28;20022;-85
2020/12/04 04:00:49;;;;;;;1.35;1.25;;;;;;;8.32;68.43;97753.28;5033089;28;20025;-86
2020/12/04 04:03:15;;;;;;;1.73;1.63;;;;;;;8.38;67.78;97754.56;5032711;28;20060;-85
2020/12/04 04:05:40;;;;;;;1.52;1.38;;;;;;;8.36;67.78;97760.09;5033055;28;20541;-85
2020/12/04 04:08:06;;;;;;;2.40;1.40;;;;;;;8.43;67.32;97757.72;5033132;28;20124;-85
2020/12/04 04:10:31;;;;;;;2.17;1.40;;;;;;;8.07;68.69;97763.50;5049829;28;20025;-86
2020/12/04 04:12:57;;;;;;;1.33;1.23;;;;;;;8.35;68.25;97742.25;5032929;28;20120;-85
2020/12/04 04:15:22;;;;;;;1.30;1.20;;;;;;;8.23;68.44;97746.00;5033360;28;20470;-84
2020/12/04 04:17:47;;;;;;;1.67;1.42;;;;;;;8.15;69.30;97752.06;5036023;28;20112;-85
2020/12/04 04:20:13;;;;;;;;;;;;;;;8.02;68.85;97752.28;5050976;28;20056;-84
2020/12/04 04:22:38;;;;;;;3.03;1.25;;;;;;;8.67;67.45;97735.88;5050877;28;19913;-85
2020/12/04 04:25:03;;;;;;;1.40;1.27;;;;;;;8.30;68.84;97729.19;5042446;28;20022;-83
2020/12/04 04:27:28;;;;;;;1.02;1.02;;;;;;;7.92;68.99;97746.00;5038946;28;20021;-85
2020/12/04 04:29:54;;;;;;;3.15;1.00;;;;;;;8.37;68.02;97753.72;5049229;28;20064;-85
2020/12/04 04:32:19;;;;;;;2.85;0.98;;;;;;;8.49;68.47;97744.59;5032498;28;20026;-86
2020/12/04 04:34:44;;;;;;;;;;;;;;;8.60;68.10;97753.56;5033948;28;20155;-86
2020/12/04 04:37:10;;;;;;;2.10;1.48;;;;;;;8.42;68.11;97762.25;5031967;28;20064;-85
2020/12/04 04:39:35;;;;;;;2.92;1.30;;;;;;;8.63;67.03;97761.38;5032432;28;20125;-86
2020/12/04 04:42:00;;;;;;;;;;;;;;;8.23;68.23;97762.16;5033949;28;20060;-86
2020/12/04 04:44:25;;;;;;;2.73;1.40;;;;;;;8.71;66.93;97766.94;5032173;28;20272;-85
2020/12/04 04:47:04;;;;;;;1.60;1.50;;;;;;;8.61;67.44;97756.13;5033639;28;20769;-84
2020/12/04 04:49:35;;;;;;;2.45;1.05;;;;;;;8.46;67.60;97739.47;5031938;28;20037;-84
2020/12/04 04:52:01;;;;;;;1.83;1.30;;;;;;;7.95;69.14;97733.13;5032021;28;20084;-84
2020/12/04 04:54:27;;;;;;;1.67;1.30;;;;;;;8.08;68.14;97734.75;5033432;28;20033;-85
2020/12/04 04:56:53;;;;;;;1.20;1.10;;;;;;;8.83;66.39;97741.56;5032141;28;20497;-84
2020/12/04 04:59:20;;;;;;;0.98;0.98;;;;;;;8.14;68.47;97753.06;5032079;28;20029;-85
2020/12/04 05:01:49;;;;;;;1.35;1.20;;;;;;;8.16;68.46;97735.78;5034595;28;20036;-85
2020/12/04 05:04:16;;;;;;;1.08;1.08;;;;;;;8.25;68.16;97736.81;5037360;28;20037;-85
2020/12/04 05:06:41;;;;;;;1.25;1.15;;;;;;;8.68;67.08;97735.72;5036295;28;20510;-85
2020/12/04 05:09:09;;;;;;;0.95;0.93;;;;;;;8.55;67.19;97743.19;5036140;28;20035;-85
2020/12/04 05:11:36;;;;;;;1.48;0.90;;;;;;;8.45;67.43;97751.22;5036283;28;20021;-85
2020/12/04 05:14:15;;;;;;;1.52;1.10;;;;;;;8.65;68.16;97719.84;5036024;28;20067;-84
2020/12/04 05:16:43;;;;;;;4.28;1.27;;;;;;;8.77;66.91;97723.28;5048467;28;20025;-86
2020/12/04 05:19:08;;;;;;;1.20;1.10;;;;;;;8.42;68.47;97726.38;5036048;28;20021;-85
2020/12/04 05:21:35;;;;;;;0.88;0.88;;;;;;;8.66;67.18;97723.38;5035767;28;20044;-85
2020/12/04 05:24:00;;;;;;;1.17;1.00;;;;;;;8.54;69.32;97724.47;5035561;28;20463;-86
2020/12/04 05:26:34;;;;;;;1.52;0.82;;;;;;;8.64;68.73;97715.41;5035675;28;20025;-85
2020/12/04 05:29:00;;;;;;;0.90;0.90;;;;;;;8.65;68.68;97716.25;5035634;28;20033;-86
2020/12/04 05:31:34;;;;;;;1.58;0.98;;;;;;;8.46;69.12;97717.06;5037272;28;20030;-86
2020/12/04 05:34:00;;;;;;;0.90;0.90;;;;;;;8.54;68.52;97711.84;5035781;28;20022;-86
2020/12/04 05:36:29;;;;;;;;;;;;;;;8.52;68.09;97711.13;5036492;28;20064;-86
2020/12/04 05:38:56;;;;;;;1.13;1.10;;;;;;;8.94;67.83;97708.25;5036512;28;19948;-86
2020/12/04 05:41:22;;;;;;;0.75;0.70;;;;;;;8.71;67.84;97714.88;5052524;28;20029;-86
2020/12/04 05:43:49;;;;;;;1.45;0.88;;;;;;;8.57;68.02;97716.13;5037573;28;20454;-87
2020/12/04 05:46:24;;;;;;;0.98;0.98;;;;;;;8.58;68.17;97712.44;5035864;28;20062;-87
2020/12/04 05:49:08;;;;;;;0.73;0.73;;;;;;;8.65;68.70;97719.84;5035748;28;20022;-85
2020/12/04 05:51:36;;;;;;;0.70;0.70;;;;;;;8.60;68.09;97734.69;5036511;28;20040;-86
2020/12/04 05:54:03;;;;;;;1.38;0.65;;;;;;;8.30;69.42;97733.72;5036300;28;20026;-85
2020/12/04 05:56:34;;;;;;;0.80;0.63;;;;;;;8.48;68.83;97736.63;5034763;28;20064;-86
2020/12/04 05:59:02;;;;;;;1.00;0.60;;;;;;;8.76;68.49;97728.78;5034953;28;20026;-83
2020/12/04 06:01:28;;;;;;;0.77;0.77;;;;;;;8.76;68.06;97724.25;5036033;28;20036;-86
2020/12/04 06:03:55;;;;;;;2.42;0.73;;;;;;;8.56;68.95;97730.56;5051776;28;20033;-85
2020/12/04 06:06:32;;;;;;;1.08;0.80;;;;;;;8.74;68.45;97733.44;5035604;28;20041;-86
2020/12/04 06:09:07;;;;;;;1.05;0.98;;;;;;;8.39;70.01;97730.19;5036576;28;20029;-86
2020/12/04 06:11:53;;;;;;;0.80;0.80;;;;;;;8.87;68.30;97736.75;5035794;28;20034;-88
2020/12/04 06:14:21;;;;;;;0.73;0.73;;;;;;;8.74;68.58;97728.06;5035587;28;20037;-87
2020/12/04 06:16:58;;;;;;;1.40;0.90;;;;;;;8.96;67.91;97753.94;5051906;28;20040;-84
2020/12/04 06:19:33;;;;;;;1.88;1.38;;;;;;;8.91;68.36;97737.31;5040961;28;20053;-84
2020/12/04 06:22:25;;;;;;;0.77;0.60;;;;;;;8.83;68.77;97740.69;5047585;28;20029;-83
2020/12/04 06:25:01;;;;;;;0.75;0.63;;;;;;;9.15;67.64;97740.47;5032660;28;20041;-86
2020/12/04 06:27:47;;;;;;;1.75;0.63;;;;;;;9.05;67.72;97750.41;5035628;28;20037;-90
2020/12/04 06:30:20;;;;;;;1.45;0.47;;;;;;;9.34;67.31;97738.78;5034961;28;20043;-89
2020/12/04 06:32:51;;;;;;;1.50;0.88;;;;;;;9.03;68.32;97747.00;5035011;28;20032;-84
2020/12/04 06:35:46;;;;;;;1.00;0.57;;;;;;;8.99;67.82;97750.97;5035941;28;20034;-86
2020/12/04 06:38:38;;;;;;;1.20;0.68;;;;;;;9.45;66.75;97737.78;5036728;28;20037;-90
2020/12/04 06:41:22;;;;;;;0.28;0.28;;;;;;;9.23;67.20;97758.66;5036947;28;20056;-93
2020/12/04 06:43:49;;;;;;;2.83;0.43;;;;;;;9.27;66.46;97767.31;5052243;28;20124;-88
2020/12/04 06:46:46;;;;;;;0.85;0.45;;;;;;;9.63;65.24;97786.50;5034909;28;20025;-89
2020/12/04 06:52:07;;;;;;;0.88;0.30;;;;;;;9.75;62.07;97782.63;5037380;28;20033;-90
2020/12/04 06:54:35;;;;;;;1.08;0.25;;;;;;;9.99;62.09;97773.25;5053385;28;20025;-89
2020/12/04 06:57:08;;;;;;;2.35;0.57;;;;;;;9.29;62.12;97790.47;5036448;28;20079;-95
2020/12/04 06:59:36;;;;;;;2.38;0.43;;;;;;;10.00;60.83;97783.06;5035776;28;20028;-91
2020/12/04 07:02:11;;;;;;;0.80;0.20;;;;;;;9.64;61.39;97797.16;5040277;28;20029;-91
2020/12/04 07:04:48;;;;;;;0.63;0.30;;;;;;;9.82;60.51;97805.38;5055967;22;20057;-89
2020/12/04 07:07:17;;;;;;;0.80;0.20;;;;;;;9.99;59.54;97803.78;5036841;28;20069;-91
2020/12/04 07:09:54;;;;;;;0.70;0.40;;;;;;;10.13;59.51;97805.22;5034704;28;20029;-88
2020/12/04 07:12:21;;;;;;;1.73;0.32;;;;;;;9.66;60.87;97830.25;5034010;28;20104;-88
2020/12/04 07:14:54;;;;;;;1.10;0.40;;;;;;;10.04;60.16;97827.66;5033734;28;20030;-89
2020/12/04 07:17:21;;;;;;;0.38;0.20;;;;;;;9.67;59.70;97856.25;5050208;28;20029;-90
2020/12/04 07:19:49;;;;;;;1.00;0.20;;;;;;;10.02;59.72;97845.88;5034482;28;20112;-89
2020/12/04 07:22:18;;;;;;;1.65;0.50;;;;;;;9.79;60.24;97846.16;5034792;28;20067;-89
2020/12/04 07:24:46;;;;;;;0.57;0.32;;;;;;;9.87;59.01;97848.16;5033101;28;20037;-90
2020/12/04 07:27:16;;;;;;;3.17;0.20;;;;;;;9.54;60.08;97872.72;5051203;28;20021;-91
2020/12/04 07:29:43;;;;;;;0.95;0.43;;;;;;;9.67;59.81;97858.94;5036573;28;20175;-90
2020/12/04 07:32:08;;;;;;;1.02;0.20;;;;;;;9.52;60.33;97869.28;5052726;28;20017;-90
2020/12/04 07:34:38;;;;;;;0.30;0.20;;;;;;;9.65;59.52;97879.00;5051261;28;20029;-90
2020/12/04 07:37:04;;;;;;;0.95;0.28;;;;;;;9.55;60.24;97881.66;5035251;28;20102;-88
2020/12/04 07:39:32;;;;;;;0.30;0.30;;;;;;;9.82;59.37;97894.47;5051536;28;20013;-88
2020/12/04 07:41:59;;;;;;;0.98;0.50;;;;;;;10.15;58.37;97888.81;5051272;28;20395;-88
2020/12/04 07:44:53;;;;;;;0.40;0.40;;;;;;;10.00;58.90;97900.03;5034525;28;20026;-89
2020/12/04 07:47:18;;;;;;;1.17;0.47;;;;;;;9.52;60.30;97904.38;5051259;28;20026;-87
2020/12/04 07:49:49;;;;;;;0.82;0.40;;;;;;;9.49;60.44;97901.94;5035816;28;20037;-89
2020/12/04 07:52:25;;;;;;;1.90;0.50;;;;;;;9.75;59.58;97909.53;5034797;28;20044;-89
2020/12/04 07:55:11;;;;;;;1.25;0.50;;;;;;;9.56;60.39;97924.69;5051860;28;20112;-89
2020/12/04 07:57:43;;;;;;;1.10;0.90;;;;;;;9.05;61.27;97925.69;5032287;28;20039;-91
2020/12/04 08:00:13;;;;;;;1.15;1.08;;;;;;;9.04;61.38;97926.66;5036893;28;20544;-89
2020/12/04 08:02:38;;;;;;;1.63;0.85;;;;;;;8.95;60.76;97947.22;5037417;28;20101;-91
2020/12/04 08:05:05;;;;;;;2.63;0.60;;;;;;;9.49;59.47;97936.19;5037357;28;20131;-93
2020/12/04 08:07:35;;;;;;;0.38;0.30;;;;;;;8.81;59.80;97979.91;5033377;28;20079;-89
2020/12/04 08:10:03;;;;;;;0.98;0.65;;;;;;;9.10;59.82;97993.53;5018155;28;20022;-94
2020/12/04 08:12:30;;;;;;;0.32;0.20;;;;;;;9.13;59.07;97965.44;5055027;28;20034;-88
2020/12/04 08:14:59;;;;;;;0.95;0.80;;;;;;;8.98;59.55;98008.09;5044124;28;20072;-89
2020/12/04 08:17:28;;;;;;;1.33;1.20;;;;;;;9.27;59.39;97981.28;5039059;28;20033;-90
2020/12/04 08:19:54;;;;;;;4.25;2.90;;;;;;;9.29;58.88;97989.25;5021133;28;20053;-88
2020/12/04 08:22:28;;;;;;;1.58;1.25;;;;;;;8.74;60.07;98038.00;5032342;28;20029;-89
2020/12/04 08:25:06;;;;;;;7.18;4.63;;;;;;;8.83;60.06;98019.22;5032103;28;20025;-93
2020/12/04 08:27:40;;;;;;;0.77;0.77;;;;;;;8.41;60.57;98024.56;5033039;28;20386;-89
2020/12/04 08:30:17;;;;;;;0.57;0.50;;;;;;;9.10;59.56;98016.97;5035884;28;20089;-89
2020/12/04 08:33:01;;;;;;;0.40;0.40;;;;;;;9.09;59.76;98026.91;5029764;28;20132;-93
2020/12/04 08:35:36;;;;;;;0.15;0.10;;;;;;;8.87;59.96;98028.75;5023018;28;20035;-89
2020/12/04 08:38:07;;;;;;;1.00;0.50;;;;;;;8.96;59.89;98040.59;5032402;28;20033;-89
2020/12/04 08:40:34;;;;;;;1.73;1.30;;;;;;;9.36;59.69;98036.25;5031265;28;20028;-86
2020/12/04 08:43:15;;;;;;;3.13;2.38;;;;;;;9.39;59.09;98035.97;5048609;28;20032;-88
2020/12/04 08:45:43;;;;;;;0.93;0.32;;;;;;;9.40;59.43;98046.66;5032209;28;20056;-87
2020/12/04 08:48:13;;;;;;;4.45;0.60;;;;;;;9.51;59.11;98048.41;5032301;28;20025;-87
2020/12/04 08:50:47;;;;;;;0.45;0.35;;;;;;;9.11;60.17;98053.75;5033254;28;20029;-89
2020/12/04 08:53:14;;;;;;;0.60;0.40;;;;;;;9.11;59.82;98072.63;5032638;28;20025;-85
2020/12/04 08:55:46;;;;;;;1.50;0.45;;;;;;;9.04;59.86;98065.06;5032221;28;20024;-89
2020/12/04 08:58:14;;;;;;;0.30;0.30;;;;;;;9.20;59.73;98067.28;5034188;28;20576;-88
2020/12/04 09:00:39;;;;;;;0.30;0.30;;;;;;;9.25;59.61;98093.00;5032486;28;20378;-90
2020/12/04 09:03:05;;;;;;;1.30;0.32;;;;;;;9.21;59.81;98079.78;5031838;28;20040;-88
2020/12/04 09:05:30;;;;;;;0.30;0.30;;;;;;;9.42;58.98;98070.81;5033682;28;20033;-91
2020/12/04 09:07:55;;;;;;;0.55;0.30;;;;;;;9.62;59.11;98082.56;5024562;28;20316;-91
2020/12/04 09:10:21;;;;;;;0.70;0.70;;;;;;;8.99;60.18;98091.53;5026977;28;20029;-88
2020/12/04 09:12:47;;;;;;;;;;;;;;;9.24;59.73;98084.06;5033334;28;20116;-88
2020/12/04 09:15:16;;;;;;;1.50;0.40;;;;;;;9.39;58.46;98104.31;5031729;28;19913;-89
2020/12/04 09:17:42;;;;;;;0.40;0.40;;;;;;;9.26;59.08;98105.50;5033162;28;20026;-92
2020/12/04 09:20:09;;;;;;;3.25;0.40;;;;;;;9.38;60.41;98109.84;5031712;28;20030;-86
2020/12/04 09:22:35;;;;;;;4.07;0.45;;;;;;;9.03;61.47;98111.03;5029776;28;20030;-88
2020/12/04 09:25:03;;;;;;;1.63;0.60;;;;;;;8.90;60.54;98116.59;5029187;28;20024;-86
2020/12/04 09:27:28;;;;;;;0.75;0.73;;;;;;;9.17;61.00;98104.47;5029022;28;20021;-87
2020/12/04 09:29:54;;;;;;;1.17;0.70;;;;;;;9.18;59.57;98112.41;5030938;28;20024;-86
2020/12/04 09:32:20;;;;;;;;;;;;;;;9.15;59.29;98117.19;5032381;28;20041;-84
2020/12/04 09:34:47;;;;;;;0.50;0.50;;;;;;;9.16;58.81;98121.63;5029503;28;19944;-86
2020/12/04 09:37:25;;;;;;;1.55;0.50;;;;;;;9.29;58.00;98122.28;5022854;28;20037;-85
2020/12/04 09:39:58;;;;;;;0.82;0.57;;;;;;;9.28;58.31;98127.81;5030413;28;20451;-86
2020/12/04 09:42:25;;;;;;;0.60;0.47;;;;;;;9.18;58.19;98131.28;5046367;28;20034;-82
2020/12/04 09:44:52;;;;;;;0.68;0.68;;;;;;;9.09;59.28;98140.19;5031511;28;20036;-88
2020/12/04 09:47:18;;;;;;;0.80;0.38;;;;;;;9.16;57.83;98148.59;5026728;28;20753;-85
2020/12/04 09:49:44;;;;;;;5.05;0.90;;;;;;;9.89;56.84;98144.06;5036450;28;20383;-87
2020/12/04 09:52:12;;;;;;;1.10;0.47;;;;;;;9.32;58.20;98161.63;5033990;28;20112;-87
2020/12/04 09:54:39;;;;;;;0.60;0.60;;;;;;;9.39;57.95;98160.97;5033801;28;20037;-88
2020/12/04 09:57:06;;;;;;;1.35;0.60;;;;;;;9.01;58.76;98197.47;5034275;28;20390;-90
2020/12/04 09:59:33;;;;;;;3.97;0.60;;;;;;;8.95;58.95;98184.50;5035701;28;20108;-87
2020/12/04 10:01:58;;;;;;;;;;;;;;;9.49;57.89;98171.81;5035377;28;20055;-88
2020/12/04 10:04:24;;;;;;;1.05;0.40;;;;;;;9.05;58.48;98185.41;5033491;28;20007;-86
2020/12/04 10:06:51;;;;;;;2.92;0.52;;;;;;;9.57;57.57;98187.34;5034351;28;20025;-87
2020/12/04 10:09:17;;;;;;;2.58;0.70;;;;;;;9.25;58.06;98193.66;5034140;28;20424;-87
2020/12/04 10:11:43;;;;;;;1.33;0.55;;;;;;;9.15;58.34;98190.03;5033953;28;20028;-87
2020/12/04 10:14:08;;;;;;;0.55;0.47;;;;;;;9.26;58.59;98194.53;5033996;28;20021;-88
2020/12/04 10:16:34;;;;;;;;;;;;;;;9.38;58.91;98198.88;5033779;28;20083;-87
2020/12/04 10:19:03;;;;;;;0.75;0.60;;;;;;;9.57;57.86;98199.03;5034390;28;19913;-90
2020/12/04 10:21:36;;;;;;;0.98;0.50;;;;;;;9.06;58.68;98205.16;5034345;28;20021;-89
2020/12/04 10:24:02;;;;;;;6.75;0.88;;;;;;;9.13;58.51;98214.44;5034897;28;20116;-90
2020/12/04 10:26:27;;;;;;;0.80;0.45;;;;;;;9.09;58.58;98222.91;5035050;28;20094;-92
2020/12/04 10:28:53;;;;;;;3.67;0.55;;;;;;;9.21;58.27;98225.44;5034551;28;20049;-86
2020/12/04 10:31:18;;;;;;;0.93;0.65;;;;;;;9.26;58.43;98224.22;5034764;28;20063;-88
2020/12/04 10:33:43;;;;;;;1.65;0.57;;;;;;;9.01;58.66;98231.66;5033774;28;20045;-86
2020/12/04 10:36:09;;;;;;;;;;;;;;;9.09;58.20;98231.88;5035988;28;20100;-87
2020/12/04 10:38:34;;;;;;;0.45;0.30;;;;;;;9.40;57.51;98229.28;5034539;28;19913;-87
2020/12/04 10:40:59;;;;;;;0.73;0.40;;;;;;;9.20;58.32;98231.81;5035236;28;20467;-87
2020/12/04 10:43:25;;;;;;;1.95;0.40;;;;;;;9.46;57.10;98225.22;5033665;28;20667;-86
2020/12/04 10:45:51;;;;;;;2.08;0.40;;;;;;;8.92;57.79;98244.03;5033615;28;20033;-85
2020/12/04 10:48:17;;;;;;;2.20;0.60;;;;;;;9.29;57.15;98242.84;5032919;28;20467;-87
2020/12/04 10:50:44;;;;;;;0.88;0.45;;;;;;;9.45;56.80;98234.28;5035007;28;20441;-86
2020/12/04 10:53:09;;;;;;;1.30;0.40;;;;;;;8.92;58.29;98256.69;5029683;28;20499;-87
2020/12/04 10:55:35;;;;;;;1.95;0.80;;;;;;;9.21;57.95;98246.19;5014895;28;20084;-87
2020/12/04 10:58:00;;;;;;;1.87;0.33;;;;;;;9.00;58.16;98255.06;5032140;28;20360;-87
2020/12/04 11:00:25;;;;;;;;;;;;;;;8.89;58.40;98259.63;5032147;28;20037;-84
2020/12/04 11:02:55;;;;;;;2.10;0.40;;;;;;;8.96;58.49;98258.16;5033123;28;20007;-85
2020/12/04 11:07:53;;;;;;;1.40;0.25;;;;;;;9.12;57.76;98268.50;5035006;28;20068;-86
2020/12/04 11:10:20;;;;;;;0.77;0.63;;;;;;;8.73;57.86;98290.53;5033021;28;20029;-88
2020/12/04 11:12:45;;;;;;;2.47;0.73;;;;;;;8.69;57.86;98281.81;5034174;28;20097;-88
2020/12/04 11:15:11;;;;;;;2.40;0.60;;;;;;;8.50;57.20;98298.66;5033925;28;20628;-85
2020/12/04 11:17:38;;;;;;;;;;;;;;;9.22;56.33;98280.25;5034264;28;20107;-85
2020/12/04 11:20:03;;;;;;;3.75;0.30;;;;;;;9.29;56.58;98286.00;5033129;28;19916;-86
2020/12/04 11:22:32;;;;;;;;;;;;;;;8.94;57.24;98295.19;5031713;28;20030;-85
2020/12/04 11:24:58;;;;;;;1.00;0.30;;;;;;;8.91;56.60;98298.09;5032830;28;19913;-86
2020/12/04 11:27:23;;;;;;;3.03;0.40;;;;;;;9.14;56.62;98297.06;5031692;28;20044;-86
2020/12/04 11:29:48;;;;;;;0.60;0.60;;;;;;;9.35;56.75;98299.81;5033707;28;20101;-86
2020/12/04 11:32:14;;;;;;;0.80;0.43;;;;;;;9.39;56.83;98308.50;5032522;28;20263;-86
2020/12/04 11:34:39;;;;;;;1.75;0.40;;;;;;;8.67;57.91;98312.59;5032317;28;20287;-87
2020/12/04 11:37:09;;;;;;;0.45;0.30;;;;;;;9.15;56.93;98296.09;5032275;28;20053;-85
2020/12/04 11:39:36;;;;;;;0.68;0.30;;;;;;;9.08;56.02;98294.88;5032814;28;20036;-86
2020/12/04 11:42:01;;;;;;;3.97;0.52;;;;;;;9.03;57.02;98307.91;5034035;28;20029;-86
2020/12/04 11:44:27;;;;;;;1.65;0.60;;;;;;;9.45;56.62;98296.34;5032943;28;20394;-86
2020/12/04 11:46:52;;;;;;;;;;;;;;;9.26;56.61;98292.50;5033013;28;20025;-85
2020/12/04 11:49:17;;;;;;;1.20;0.55;;;;;;;8.91;57.35;98296.28;5032778;28;20255;-86
2020/12/04 11:51:43;;;;;;;0.50;0.50;;;;;;;8.92;57.62;98291.72;5033893;28;20108;-86
2020/12/04 11:54:08;;;;;;;2.25;0.20;;;;;;;8.94;57.93;98289.78;5034088;28;20447;-85
2020/12/04 11:56:33;;;;;;;0.50;0.43;;;;;;;9.32;56.64;98293.84;5032494;28;20029;-86